PWSweather.com
Personal Weather Stations
Station Observations
SHAHALMS1
Eftra, Falkenberg, HA

EftraFalkenberg, HA

Lat: 56.85, Lon: 12.65

Elevation: 140

Station Type:

http://hem.passagen.se/risarp101

Latest ConditionsUpdated 5:10:01 AM GMT+1 Monday, May 27, 2019
Currently Today's Max Today's Min Today's Average
Temperature 50.7°F10.4°C 50.7°F10.4°C 48.9°F9.4°C 49.4°F9.7°C
Dew Point 48.5°F9.2°C 48.5°F9.2°C 44.3°F6.8°C 46.1°F7.8°C
Winds Calm Calm 3.9 mph -6.3 kmh - - 1.0 mph 1.6 kmh
Wind Gusts -- 8.9 mph14.3 kmh - -
Humidity 92% 92% 84% 89%
Pressure 29.47 in998.0 mb 29.56 in1001.0 mb 29.45 in997.3 mb -
Precipitation - 0.10 in2.5 mm - -
Hour Temp Dew Point Humidity Winds Wind Gusts Pressure Precip Precip Rate Daily Precip Total
05:10 AM 50.7°F10.4°C 48.5°F9.2°C 92% Calm Calm -- 29.47 in998.0 mb 0.00 in0.0 mm 0.00 in0.0 mm 0.10 in2.5 mm
05:00 AM 50.7°F10.4°C 48.5°F9.2°C 92% 0.1 mph ESE0.2 kmh ESE 2.1 mph3.4 kmh 29.47 in998.0 mb 0.00 in0.0 mm 0.00 in0.0 mm 0.10 in2.5 mm
04:50 AM 50.4°F10.2°C 48.1°F8.9°C 92% 1.3 mph E2.1 kmh E 6.4 mph10.3 kmh 29.45 in997.3 mb 0.00 in0.0 mm 0.00 in0.0 mm 0.10 in2.5 mm
04:40 AM 50.2°F10.1°C 47.9°F8.8°C 92% 1.4 mph E2.3 kmh E 5.4 mph8.7 kmh 29.47 in998.0 mb 0.00 in0.0 mm 0.00 in0.0 mm 0.10 in2.5 mm
04:30 AM 50.0°F10.0°C 47.8°F8.8°C 92% 2.2 mph SE3.5 kmh SE 6.8 mph10.9 kmh 29.47 in998.0 mb 0.00 in0.0 mm 0.00 in0.0 mm 0.10 in2.5 mm
04:20 AM 49.8°F9.9°C 47.3°F8.5°C 91% 3.9 mph ESE6.3 kmh ESE 8.9 mph14.3 kmh 29.47 in998.0 mb 0.00 in0.0 mm 0.00 in0.0 mm 0.10 in2.5 mm
04:10 AM 49.8°F9.9°C 47.3°F8.5°C 91% 3.5 mph E5.6 kmh E 6.8 mph10.9 kmh 29.47 in998.0 mb 0.00 in0.0 mm 0.00 in0.0 mm 0.10 in2.5 mm
04:00 AM 49.6°F9.8°C 47.1°F8.4°C 91% 2.5 mph E4.0 kmh E 8.9 mph14.3 kmh 29.47 in998.0 mb 0.00 in0.0 mm 0.00 in0.0 mm 0.10 in2.5 mm
03:50 AM 49.5°F9.7°C 46.9°F8.3°C 91% 2.0 mph E3.2 kmh E 6.1 mph9.8 kmh 29.47 in998.0 mb 0.00 in0.0 mm 0.00 in0.0 mm 0.10 in2.5 mm
03:40 AM 49.5°F9.7°C 46.6°F8.1°C 90% 1.4 mph E2.3 kmh E 6.1 mph9.8 kmh 29.45 in997.3 mb 0.00 in0.0 mm 0.00 in0.0 mm 0.10 in2.5 mm
03:30 AM 49.3°F9.6°C 46.5°F8.1°C 90% 0.9 mph E1.4 kmh E 6.4 mph10.3 kmh 29.45 in997.3 mb 0.05 in1.3 mm 0.00 in0.0 mm 0.10 in2.5 mm
03:20 AM 49.3°F9.6°C 46.5°F8.1°C 90% 0.4 mph ENE0.6 kmh ENE 4.3 mph6.9 kmh 29.47 in998.0 mb 0.05 in1.3 mm 0.00 in0.0 mm 0.10 in2.5 mm
03:10 AM 49.1°F9.5°C 46.0°F7.8°C 89% 0.5 mph ENE0.8 kmh ENE 4.7 mph7.6 kmh 29.47 in998.0 mb 0.05 in1.3 mm 0.00 in0.0 mm 0.10 in2.5 mm
03:00 AM 49.1°F9.5°C 46.0°F7.8°C 89% 0.5 mph E0.8 kmh E 6.1 mph9.8 kmh 29.47 in998.0 mb 0.05 in1.3 mm 0.00 in0.0 mm 0.10 in2.5 mm
02:50 AM 49.1°F9.5°C 46.0°F7.8°C 89% 0.3 mph E0.5 kmh E 4.3 mph6.9 kmh 29.47 in998.0 mb 0.05 in1.3 mm 0.00 in0.0 mm 0.10 in2.5 mm
02:40 AM 49.3°F9.6°C 46.2°F7.9°C 89% 0.2 mph E0.3 kmh E 5.7 mph9.2 kmh 29.47 in998.0 mb 0.05 in1.3 mm 0.30 in7.6 mm 0.10 in2.5 mm
02:30 AM 49.1°F9.5°C 46.0°F7.8°C 89% 1.1 mph E1.8 kmh E 5.7 mph9.2 kmh 29.47 in998.0 mb 0.00 in0.0 mm 0.00 in0.0 mm 0.06 in1.5 mm
02:20 AM 49.1°F9.5°C 46.0°F7.8°C 89% 0.6 mph E1.0 kmh E 5.0 mph8.0 kmh 29.50 in999.0 mb 0.06 in1.5 mm 0.00 in0.0 mm 0.06 in1.5 mm
02:10 AM 48.9°F9.4°C 45.5°F7.5°C 88% 1.9 mph E3.1 kmh E 6.8 mph10.9 kmh 29.53 in1000.0 mb 0.06 in1.5 mm 0.00 in0.0 mm 0.06 in1.5 mm
02:00 AM 48.9°F9.4°C 45.5°F7.5°C 88% 1.7 mph E2.7 kmh E 6.1 mph9.8 kmh 29.53 in1000.0 mb 0.06 in1.5 mm 0.00 in0.0 mm 0.06 in1.5 mm
01:50 AM 48.9°F9.4°C 45.5°F7.5°C 88% 2.4 mph E3.9 kmh E 8.6 mph13.8 kmh 29.53 in1000.0 mb 0.06 in1.5 mm 0.00 in0.0 mm 0.06 in1.5 mm
01:40 AM 48.9°F9.4°C 45.2°F7.3°C 87% 1.5 mph E2.4 kmh E 7.9 mph12.7 kmh 29.53 in1000.0 mb 0.06 in1.5 mm 0.00 in0.0 mm 0.06 in1.5 mm
01:30 AM 48.9°F9.4°C 45.2°F7.3°C 87% Calm Calm -- 29.53 in1000.0 mb 0.06 in1.5 mm 0.36 in9.1 mm 0.06 in1.5 mm
01:20 AM 48.9°F9.4°C 44.9°F7.2°C 86% Calm Calm -- 29.50 in999.0 mb 0.00 in0.0 mm 0.00 in0.0 mm 0.00 in0.0 mm
01:10 AM 49.1°F9.5°C 45.4°F7.4°C 87% Calm Calm -- 29.53 in1000.0 mb 0.00 in0.0 mm 0.00 in0.0 mm 0.00 in0.0 mm
01:00 AM 49.1°F9.5°C 45.1°F7.3°C 86% 0.1 mph E0.2 kmh E 1.8 mph2.9 kmh 29.53 in1000.0 mb 0.00 in0.0 mm 0.00 in0.0 mm 0.00 in0.0 mm
12:50 AM 49.1°F9.5°C 45.1°F7.3°C 86% 0.8 mph E1.3 kmh E 5.0 mph8.0 kmh 29.53 in1000.0 mb 0.00 in0.0 mm 0.00 in0.0 mm 0.00 in0.0 mm
12:40 AM 49.1°F9.5°C 45.1°F7.3°C 86% Calm Calm -- 29.53 in1000.0 mb 0.00 in0.0 mm 0.00 in0.0 mm 0.00 in0.0 mm
12:30 AM 49.1°F9.5°C 44.8°F7.1°C 85% 0.2 mph E0.3 kmh E 3.6 mph5.8 kmh 29.53 in1000.0 mb 0.00 in0.0 mm 0.00 in0.0 mm 0.00 in0.0 mm
12:20 AM 48.9°F9.4°C 44.6°F7.0°C 85% 0.2 mph E0.3 kmh E 3.6 mph5.8 kmh 29.56 in1001.0 mb 0.00 in0.0 mm 0.00 in0.0 mm 0.00 in0.0 mm
12:10 AM 48.9°F9.4°C 44.6°F7.0°C 85% Calm Calm -- 29.56 in1001.0 mb 0.00 in0.0 mm 0.00 in0.0 mm 0.00 in0.0 mm
12:00 AM 48.9°F9.4°C 44.3°F6.8°C 84% Calm Calm -- 29.56 in1001.0 mb 0.00 in0.0 mm 0.00 in0.0 mm 0.00 in0.0 mm